Time;durP1;ratioP1;P1;durP2;ratioP2;P2;SDS_P1;SDS_P2;PMS_P1;PMS_P2;Temp;Humidity;BMP_temperature;BMP_pressure;BME280_temperature;BME280_humidity;BME280_pressure;Samples;Min_cycle;Max_cycle;Signal;HPM_P1;HPM_P2
2021/12/02 00:01:42;;;;;;;2.38;0.80;;;10.40;53.90;;;8.68;61.96;98342.88;8286448;28;20128;-89
2021/12/02 00:06:09;;;;;;;0.73;0.60;;;10.20;54.40;;;8.59;61.75;98346.28;8269605;28;20510;-91
2021/12/02 00:10:32;;;;;;;3.80;0.80;;;10.30;54.00;;;8.54;62.20;98332.84;8288476;28;20125;-90
2021/12/02 00:14:53;;;;;;;2.17;0.80;;;10.20;54.00;;;8.53;61.56;98346.78;8272469;28;20125;-90
2021/12/02 00:24:08;;;;;;;2.35;0.60;;;10.00;53.50;;;8.50;61.37;98363.47;8295025;28;20124;-88
2021/12/02 00:28:31;;;;;;;2.17;0.60;;;10.10;53.90;;;8.41;61.48;98359.88;8300369;28;20136;-90
2021/12/02 00:32:56;;;;;;;1.48;0.70;;;10.00;54.10;;;8.48;61.04;98395.75;8271460;28;20120;-88
2021/12/02 00:37:18;;;;;;;1.73;0.70;;;10.00;53.80;;;8.37;61.31;98350.66;8287396;28;20136;-90
2021/12/02 00:41:41;;;;;;;1.08;0.68;;;10.00;54.10;;;8.40;61.28;98363.44;8277557;28;20447;-88
2021/12/02 00:46:08;;;;;;;1.35;0.98;;;9.90;53.90;;;8.37;61.42;98381.88;8290257;28;20170;-89
2021/12/02 00:50:30;;;;;;;0.77;0.70;;;10.00;53.90;;;8.41;61.47;98383.28;8301248;28;20129;-90
2021/12/02 00:54:55;;;;;;;1.30;1.20;;;9.90;54.30;;;8.32;61.51;98368.44;8286235;28;20124;-89
2021/12/02 00:59:17;;;;;;;1.13;0.60;;;9.90;54.60;;;8.31;61.26;98379.75;8287897;28;20132;-90
2021/12/02 01:03:39;;;;;;;1.10;1.00;;;9.90;54.60;;;8.38;61.15;98409.50;8299869;28;20128;-89
2021/12/02 01:08:01;;;;;;;2.67;0.70;;;9.90;54.40;;;8.24;61.57;98391.63;8298331;28;20129;-87
2021/12/02 01:12:23;;;;;;;1.00;0.60;;;9.90;54.50;;;8.31;61.46;98416.16;8286433;28;20148;-88
2021/12/02 01:16:45;;;;;;;1.58;0.75;;;9.80;54.40;;;8.27;61.21;98455.56;8292412;28;20137;-90
2021/12/02 01:21:11;;;;;;;1.23;0.57;;;9.90;54.40;;;8.22;61.17;98462.91;8314050;28;20241;-88
2021/12/02 01:25:32;;;;;;;;;;;9.80;53.60;;;8.17;61.55;98482.28;8277323;28;20106;-89
2021/12/02 01:29:55;;;;;;;1.42;0.88;;;9.80;54.70;;;8.08;61.06;98514.25;8284203;28;20008;-89
2021/12/02 01:34:22;;;;;;;1.23;0.70;;;9.70;54.60;;;7.95;61.24;98530.00;8297772;28;20053;-87
2021/12/02 01:39:12;;;;;;;0.60;0.60;;;9.70;55.40;;;7.84;61.37;98545.63;8296787;28;20578;-88
2021/12/02 01:43:49;;;;;;;0.75;0.50;;;9.50;55.70;;;7.56;61.71;98538.31;8275230;28;20144;-89
2021/12/02 01:48:22;;;;;;;1.38;0.50;;;9.30;56.00;;;7.39;61.80;98524.88;8297830;28;20120;-88
2021/12/02 01:53:00;;;;;;;0.50;0.50;;;9.20;56.20;;;7.25;61.99;98543.31;8299439;28;20170;-88
2021/12/02 01:57:47;;;;;;;0.50;0.50;;;9.00;56.30;;;7.11;61.95;98538.34;8265817;28;20048;-88
2021/12/02 02:02:10;;;;;;;1.52;0.63;;;8.90;56.50;;;7.03;61.78;98531.97;8295914;28;20127;-89
2021/12/02 02:06:40;;;;;;;0.45;0.40;;;8.70;56.60;;;7.02;61.83;98553.69;8291565;28;20125;-89
2021/12/02 02:11:02;;;;;;;0.40;0.40;;;8.60;56.50;;;6.94;61.86;98556.03;8289996;28;20129;-89
2021/12/02 02:15:28;;;;;;;0.50;0.50;;;8.50;56.50;;;6.86;62.27;98537.63;8301752;28;20125;-89
2021/12/02 02:19:50;;;;;;;0.63;0.60;;;8.40;57.00;;;6.84;62.45;98536.91;8314660;28;20145;-90
2021/12/02 02:24:17;;;;;;;0.47;0.47;;;8.40;56.50;;;6.72;62.00;98574.94;8297454;23;20172;-81
2021/12/02 02:28:39;;;;;;;0.75;0.60;;;8.40;56.40;;;6.68;62.02;98568.34;8293841;28;20570;-79
2021/12/02 02:33:01;;;;;;;0.40;0.40;;;8.30;56.20;;;6.54;62.24;98538.25;8306845;28;20140;-82
2021/12/02 02:37:23;;;;;;;0.50;0.50;;;8.20;56.30;;;6.34;61.86;98534.50;8305715;28;20048;-79
2021/12/02 02:41:46;;;;;;;0.40;0.40;;;8.10;56.20;;;6.39;62.42;98554.91;8312647;28;20137;-79
2021/12/02 02:46:08;;;;;;;0.40;0.40;;;8.10;56.40;;;6.32;62.29;98556.28;8308740;28;20595;-79
2021/12/02 02:50:31;;;;;;;0.40;0.40;;;8.00;56.40;;;6.34;62.25;98557.00;8288529;28;20042;-82
2021/12/02 02:54:53;;;;;;;0.52;0.52;;;8.00;56.50;;;6.31;62.45;98565.81;8308457;28;20565;-81
2021/12/02 02:59:43;;;;;;;0.80;0.50;;;7.90;56.60;;;6.27;62.55;98568.78;8299696;28;20060;-80
2021/12/02 03:08:50;;;;;;;0.50;0.50;;;7.90;56.60;;;6.27;62.46;98592.91;8314314;28;20140;-80
2021/12/02 03:13:54;;;;;;;0.65;0.60;;;7.90;56.50;;;6.30;62.35;98602.25;8297808;28;20128;-80
2021/12/02 03:17:56;;;;;;;0.50;0.50;;;7.90;56.50;;;6.28;62.91;98607.53;8303134;28;20050;-81
2021/12/02 03:22:18;;;;;;;0.93;0.40;;;7.90;56.70;;;6.29;62.04;98597.97;8317789;28;20475;-80
2021/12/02 03:26:40;;;;;;;0.40;0.40;;;7.90;56.70;;;6.28;62.89;98606.69;8315705;28;20055;-81
2021/12/02 03:31:03;;;;;;;0.40;0.40;;;7.80;56.60;;;6.21;62.57;98590.75;8310024;28;20144;-81
2021/12/02 03:35:25;;;;;;;0.57;0.55;;;7.90;56.60;;;6.22;62.57;98609.75;8310300;28;20068;-81
2021/12/02 03:39:47;;;;;;;0.55;0.50;;;7.90;56.60;;;6.27;62.80;98600.69;8313399;28;20141;-80
2021/12/02 03:44:09;;;;;;;0.52;0.47;;;8.00;56.60;;;6.29;62.71;98604.00;8295269;28;20128;-80
2021/12/02 03:48:32;;;;;;;0.40;0.40;;;7.90;56.50;;;6.30;62.45;98625.56;8298458;28;20128;-80
2021/12/02 03:52:53;;;;;;;0.47;0.47;;;7.90;56.50;;;6.23;62.20;98611.38;8299914;28;20045;-81
2021/12/02 03:57:15;;;;;;;0.45;0.45;;;7.90;56.50;;;6.32;62.78;98629.72;8313500;28;20407;-80
2021/12/02 04:01:37;;;;;;;2.08;0.65;;;7.90;56.40;;;6.29;62.68;98631.66;8307675;28;20052;-80
2021/12/02 04:05:59;;;;;;;1.10;0.50;;;7.90;56.50;;;6.20;62.46;98625.38;8307537;28;20128;-80
2021/12/02 04:10:22;;;;;;;0.80;0.73;;;7.90;56.40;;;6.29;62.66;98632.53;8289755;28;20132;-82
2021/12/02 04:14:52;;;;;;;1.85;0.57;;;7.90;56.40;;;6.30;62.80;98651.50;8284834;28;20124;-82
2021/12/02 04:19:14;;;;;;;0.60;0.50;;;8.00;56.50;;;6.32;62.59;98650.44;8301785;28;20042;-83
2021/12/02 04:23:36;;;;;;;1.08;0.73;;;7.90;56.50;;;6.32;62.64;98666.00;8296954;28;20554;-83
2021/12/02 04:27:58;;;;;;;0.65;0.40;;;7.90;56.30;;;6.26;62.53;98675.94;8292371;28;20128;-82
2021/12/02 04:32:20;;;;;;;0.85;0.60;;;7.90;56.60;;;6.32;62.13;98691.06;8288420;28;20148;-82
2021/12/02 04:36:42;;;;;;;1.60;0.60;;;7.90;56.10;;;6.30;62.94;98711.94;8303262;28;20045;-81
2021/12/02 04:41:04;;;;;;;0.77;0.60;;;7.90;56.20;;;6.29;62.45;98727.56;8288819;28;20041;-81
2021/12/02 04:45:25;;;;;;;1.80;0.60;;;7.90;56.10;;;6.26;62.36;98740.75;8293693;28;20128;-82
2021/12/02 04:49:47;;;;;;;0.65;0.52;;;7.90;56.10;;;6.11;62.23;98717.56;8300385;28;20581;-81
2021/12/02 04:54:09;;;;;;;1.17;0.70;;;7.80;56.20;;;6.22;62.58;98768.66;8318896;28;20128;-82
2021/12/02 04:58:31;;;;;;;1.00;0.82;;;7.80;56.50;;;6.18;62.54;98759.41;8313361;28;20401;-82
2021/12/02 05:02:53;;;;;;;0.90;0.60;;;7.80;56.00;;;6.15;61.98;98765.63;8282705;28;20136;-82
2021/12/02 05:07:14;;;;;;;0.60;0.60;;;7.80;56.10;;;6.12;62.30;98773.63;8300305;28;20045;-82
2021/12/02 05:11:38;;;;;;;3.38;0.75;;;7.80;56.10;;;6.11;61.96;98781.50;8318397;28;20048;-82
2021/12/02 05:16:00;;;;;;;2.00;0.50;;;7.70;56.10;;;6.12;62.82;98783.97;8301671;28;20377;-82
2021/12/02 05:20:22;;;;;;;1.65;0.50;;;7.80;56.10;;;6.13;62.58;98800.34;8321265;28;20068;-80
2021/12/02 05:24:46;;;;;;;1.00;0.55;;;7.80;56.00;;;6.10;62.51;98791.06;8314793;28;20048;-81
2021/12/02 05:29:08;;;;;;;0.63;0.50;;;7.70;55.90;;;6.05;61.91;98787.09;8317871;28;20063;-81
2021/12/02 05:33:30;;;;;;;1.95;0.60;;;7.70;55.80;;;6.01;62.71;98794.25;8314061;28;20421;-82
2021/12/02 05:37:52;;;;;;;1.55;0.50;;;7.60;55.70;;;6.03;62.28;98818.31;8290135;28;20037;-82
2021/12/02 05:42:15;;;;;;;0.50;0.50;;;7.70;55.70;;;5.94;62.26;98811.13;8292877;28;20033;-81
2021/12/02 05:46:37;;;;;;;0.40;0.40;;;7.60;55.60;;;5.89;62.42;98810.59;8294446;28;20054;-80
2021/12/02 05:50:59;;;;;;;1.27;0.65;;;7.60;55.60;;;5.90;62.42;98812.25;8314662;28;20497;-82
2021/12/02 05:55:22;;;;;;;0.98;0.57;;;7.60;55.60;;;5.86;62.12;98822.00;8300238;28;20569;-80
2021/12/02 05:59:43;;;;;;;0.60;0.60;;;7.60;55.50;;;5.88;61.97;98827.06;8300667;28;20049;-85
2021/12/02 06:04:05;;;;;;;0.47;0.47;;;7.50;55.50;;;5.90;61.92;98825.19;8289452;28;20385;-81
2021/12/02 06:08:27;;;;;;;0.50;0.50;;;7.50;55.60;;;5.92;61.78;98844.06;8311481;28;20147;-80
2021/12/02 06:12:49;;;;;;;1.20;0.68;;;7.50;55.30;;;5.89;62.12;98845.09;8299238;28;20136;-81
2021/12/02 06:17:10;;;;;;;2.17;0.63;;;7.50;55.30;;;5.93;62.32;98848.31;8286073;28;20042;-81
2021/12/02 06:21:32;;;;;;;0.80;0.80;;;7.50;55.20;;;5.88;61.64;98863.31;8295491;28;20048;-82
2021/12/02 06:25:54;;;;;;;1.33;0.77;;;7.50;55.30;;;5.85;62.19;98869.53;8299653;28;20136;-83
2021/12/02 06:30:18;;;;;;;0.57;0.57;;;7.60;55.30;;;5.94;62.43;98894.03;8289908;28;20445;-83
2021/12/02 06:34:39;;;;;;;0.88;0.52;;;7.50;55.30;;;5.87;61.91;98888.41;8300417;28;20140;-82
2021/12/02 06:39:02;;;;;;;0.77;0.50;;;7.60;55.40;;;5.90;61.80;98900.31;8287105;28;20048;-84
2021/12/02 06:43:24;;;;;;;0.70;0.50;;;7.60;55.20;;;5.84;61.86;98887.78;8298626;28;20120;-83
2021/12/02 06:47:47;;;;;;;0.52;0.52;;;7.60;55.20;;;5.86;62.19;98911.81;8308124;28;20140;-82
2021/12/02 06:52:12;;;;;;;1.27;0.57;;;7.50;55.00;;;5.87;61.76;98922.06;8286594;28;20488;-83
2021/12/02 06:56:33;;;;;;;0.50;0.50;;;7.50;55.10;;;5.72;61.68;98918.69;8305711;28;20601;-83
2021/12/02 07:00:55;;;;;;;1.33;0.68;;;7.50;55.30;;;5.73;61.94;98928.16;8293777;28;20125;-82
2021/12/02 07:05:17;;;;;;;0.50;0.50;;;7.50;54.60;;;5.69;61.79;98952.56;8292199;28;20055;-83
2021/12/02 07:09:39;;;;;;;0.40;0.40;;;7.40;54.70;;;5.57;62.03;98937.00;8292980;28;20049;-83
2021/12/02 07:14:10;;;;;;;0.50;0.50;;;7.40;55.00;;;5.64;61.92;98962.38;8287564;28;20045;-83
2021/12/02 07:18:37;;;;;;;0.70;0.70;;;7.30;55.10;;;5.59;61.54;98974.81;8300675;28;20061;-83
2021/12/02 07:22:58;;;;;;;0.50;0.50;;;7.30;54.90;;;5.56;62.17;98977.56;8292369;28;20613;-83
2021/12/02 07:27:20;;;;;;;0.60;0.60;;;7.30;55.10;;;5.55;61.89;98975.91;8299637;28;20051;-83
2021/12/02 07:31:43;;;;;;;0.50;0.50;;;7.20;55.10;;;5.55;61.40;98989.69;8288048;28;20800;-83
2021/12/02 07:36:05;;;;;;;0.88;0.60;;;7.20;55.30;;;5.58;61.77;98986.06;8292908;28;20422;-83
2021/12/02 07:40:33;;;;;;;1.35;0.60;;;7.20;55.40;;;5.64;61.91;98998.63;8272831;28;20466;-83
2021/12/02 07:44:55;;;;;;;0.65;0.45;;;7.20;55.40;;;5.61;62.20;99001.41;8303594;28;20045;-83
2021/12/02 07:49:17;;;;;;;0.50;0.50;;;7.20;55.50;;;5.61;61.67;99010.94;8283562;28;20583;-83
2021/12/02 07:53:44;;;;;;;0.57;0.50;;;7.30;55.60;;;5.59;62.16;99021.41;8273511;28;20072;-83
2021/12/02 07:58:09;;;;;;;0.60;0.60;;;7.30;55.50;;;5.57;61.85;99025.84;8285583;28;20042;-85
2021/12/02 08:02:33;;;;;;;0.82;0.80;;;7.30;55.30;;;5.59;61.77;99043.88;8263954;28;20052;-86
2021/12/02 08:06:55;;;;;;;0.50;0.50;;;7.40;55.30;;;5.58;62.01;99048.22;8259141;28;20517;-83
2021/12/02 08:11:17;;;;;;;0.75;0.60;;;7.40;55.40;;;5.53;61.55;99065.78;8297242;28;20217;-83
2021/12/02 08:15:40;;;;;;;1.58;0.65;;;7.20;55.20;;;5.52;61.50;99064.13;8269990;28;20534;-83
2021/12/02 08:20:03;;;;;;;0.80;0.80;;;7.20;55.10;;;5.52;61.69;99085.69;8269146;28;20502;-83
2021/12/02 08:28:43;;;;;;;0.60;0.60;;;7.20;55.20;;;5.13;61.44;99047.53;8327644;23;20136;-93
2021/12/02 08:33:08;;;;;;;2.33;0.77;;;7.10;55.00;;;5.12;61.47;99053.59;8288386;28;20741;-93
2021/12/02 08:37:35;;;;;;;0.57;0.57;;;7.00;54.90;;;5.14;61.66;99069.88;8284338;28;20137;-93
2021/12/02 08:42:21;;;;;;;0.80;0.70;;;7.10;55.00;;;5.22;61.71;99103.06;8271282;28;20156;-94
2021/12/02 08:46:55;;;;;;;1.08;0.75;;;7.30;54.90;;;5.03;61.19;99074.84;8282703;28;20120;-95
2021/12/02 08:51:24;;;;;;;0.70;0.52;;;7.00;54.70;;;5.10;61.21;99092.50;8257186;28;20148;-91
2021/12/02 08:55:46;;;;;;;0.88;0.65;;;7.00;55.00;;;5.23;61.61;99123.66;8284376;28;20565;-93
2021/12/02 09:00:12;;;;;;;1.55;0.70;;;7.20;54.80;;;5.11;61.13;99106.28;8268972;28;20113;-91
2021/12/02 09:04:34;;;;;;;0.40;0.40;;;7.00;54.60;;;5.30;61.36;99145.66;8272067;28;20140;-92
2021/12/02 09:08:59;;;;;;;1.60;1.50;;;7.00;55.00;;;5.12;61.34;99114.88;8274466;28;20133;-92
2021/12/02 09:13:22;;;;;;;1.20;0.73;;;6.90;54.20;;;4.91;61.03;99078.16;8288809;28;20132;-94
2021/12/02 09:17:49;;;;;;;0.98;0.88;;;7.10;54.50;;;5.15;61.19;99132.78;8283412;28;20133;-93
2021/12/02 09:22:11;;;;;;;2.15;0.77;;;6.90;55.00;;;4.97;61.33;99098.47;8278980;28;20132;-93
2021/12/02 09:26:33;;;;;;;0.55;0.55;;;7.30;54.70;;;5.20;61.40;99147.13;8274954;28;20121;-89
2021/12/02 09:30:54;;;;;;;0.40;0.40;;;7.20;54.40;;;5.35;61.45;99170.44;8282882;28;20577;-93
2021/12/02 09:35:16;;;;;;;1.08;0.60;;;7.00;54.30;;;5.30;61.53;99184.50;8278349;28;20124;-94
2021/12/02 09:39:41;;;;;;;0.65;0.65;;;6.80;54.10;;;5.31;61.24;99175.78;8268242;28;20037;-92
2021/12/02 09:44:03;;;;;;;0.60;0.60;;;7.00;54.30;;;5.32;61.42;99197.34;8268449;28;20505;-94
2021/12/02 09:48:28;;;;;;;0.50;0.50;;;7.00;54.10;;;5.36;61.54;99206.59;8285435;28;20105;-91
2021/12/02 09:52:51;;;;;;;0.50;0.50;;;7.00;53.90;;;5.42;61.03;99207.97;8266193;28;20125;-93
2021/12/02 09:57:16;;;;;;;0.47;0.47;;;7.00;54.10;;;5.50;61.47;99206.59;8272169;28;20121;-90
2021/12/02 10:01:51;;;;;;;0.70;0.70;;;7.10;54.40;;;5.54;61.52;99202.94;8291411;28;20508;-91
2021/12/02 10:06:22;;;;;;;0.60;0.60;;;7.20;53.80;;;5.61;60.76;99216.34;8290961;28;20463;-94
2021/12/02 10:10:59;;;;;;;0.60;0.60;;;7.20;53.80;;;5.66;60.92;99223.84;8301500;28;20120;-95
2021/12/02 10:15:22;;;;;;;0.55;0.55;;;7.30;54.00;;;5.67;61.23;99218.59;8304787;28;20586;-95
2021/12/02 10:20:24;;;;;;;0.65;0.65;;;7.30;53.70;;;5.70;60.85;99233.09;8300725;28;20471;-94
2021/12/02 10:24:47;;;;;;;0.45;0.45;;;7.40;53.90;;;5.76;61.05;99224.97;8294195;28;20168;-95
2021/12/02 10:29:13;;;;;;;0.50;0.50;;;7.20;53.80;;;5.70;61.21;99215.81;8280645;28;20125;-94
2021/12/02 10:33:50;;;;;;;0.63;0.60;;;7.40;53.60;;;5.80;60.83;99234.19;8293857;28;20152;-92
2021/12/02 10:38:40;;;;;;;0.93;0.70;;;7.40;53.70;;;5.82;60.90;99237.53;8269650;28;20105;-95
2021/12/02 10:43:10;;;;;;;1.00;0.60;;;7.50;53.80;;;5.72;60.90;99216.53;8303656;28;20201;-93
2021/12/02 10:47:33;;;;;;;1.48;0.63;;;7.50;53.40;;;5.76;60.64;99207.66;8297293;28;20505;-94
2021/12/02 10:52:03;;;;;;;0.85;0.50;;;7.50;53.70;;;5.89;60.79;99228.50;8280899;28;20128;-92
2021/12/02 10:56:37;;;;;;;1.45;0.85;;;7.50;53.80;;;5.81;60.43;99237.66;8297195;28;20141;-93
2021/12/02 11:00:59;;;;;;;0.93;0.73;;;7.60;53.40;;;5.90;60.70;99255.22;8287147;28;20114;-94
2021/12/02 11:05:34;;;;;;;2.53;0.70;;;7.60;53.60;;;5.88;60.64;99255.28;8273514;28;20123;-93
2021/12/02 11:10:02;;;;;;;0.50;0.50;;;7.50;53.30;;;5.83;60.74;99269.44;8277567;28;20140;-92
2021/12/02 11:14:24;;;;;;;0.60;0.60;;;7.60;53.50;;;5.77;60.88;99258.53;8260790;28;20597;-94
2021/12/02 11:18:46;;;;;;;0.52;0.52;;;7.50;53.00;;;5.69;60.59;99254.72;8289415;28;20132;-93
2021/12/02 11:23:22;;;;;;;0.65;0.60;;;7.50;53.30;;;5.77;60.46;99275.81;8299801;28;20470;-92
2021/12/02 11:27:50;;;;;;;0.63;0.63;;;7.40;53.00;;;5.74;60.53;99284.59;8286011;28;20137;-92
2021/12/02 11:32:25;;;;;;;1.00;1.00;;;7.50;53.60;;;5.79;60.63;99299.88;8263802;28;20132;-93
2021/12/02 11:36:47;;;;;;;1.42;1.33;;;7.40;53.20;;;5.68;60.33;99274.63;8291237;28;20114;-92
2021/12/02 11:41:09;;;;;;;0.60;0.60;;;7.40;53.60;;;5.81;60.49;99292.88;8290210;28;20519;-95
2021/12/02 11:45:36;;;;;;;0.68;0.63;;;7.50;53.40;;;5.83;60.15;99300.53;8270594;28;20133;-95
2021/12/02 11:49:58;;;;;;;0.93;0.70;;;7.50;53.00;;;5.76;60.47;99285.34;8288081;28;20128;-93
2021/12/02 11:54:19;;;;;;;0.82;0.50;;;7.50;53.20;;;5.86;60.22;99302.94;8290500;28;20117;-92
2021/12/02 11:58:42;;;;;;;0.60;0.60;;;7.50;53.40;;;5.77;60.07;99291.38;8273923;28;20050;-95
2021/12/02 12:03:14;;;;;;;0.88;0.85;;;7.50;53.30;;;5.93;60.09;99301.66;8283130;28;20489;-94
2021/12/02 12:07:48;;;;;;;1.17;0.70;;;7.50;52.80;;;5.90;60.39;99313.03;8284926;28;20101;-94
2021/12/02 12:12:11;;;;;;;0.55;0.55;;;7.60;53.40;;;5.85;60.38;99301.28;8282363;28;20136;-93
2021/12/02 12:16:39;;;;;;;0.85;0.50;;;7.60;53.10;;;5.99;59.92;99322.06;8277903;28;20124;-96
2021/12/02 12:21:12;;;;;;;0.50;0.50;;;7.60;53.10;;;6.00;59.92;99318.56;8295178;28;20598;-93
2021/12/02 12:25:34;;;;;;;0.55;0.55;;;7.60;53.00;;;5.90;60.36;99302.69;8277587;28;20282;-92
2021/12/02 12:30:09;;;;;;;1.40;0.70;;;7.70;53.10;;;6.08;59.88;99337.06;8286850;28;20120;-94
2021/12/02 12:35:06;;;;;;;2.53;0.60;;;7.70;52.90;;;6.06;60.39;99332.91;8287481;28;20182;-93
2021/12/02 12:39:25;;;;;;;0.45;0.45;;;7.70;52.30;;;5.99;59.74;99342.78;8296311;28;20136;-93
2021/12/02 12:43:54;;;;;;;0.95;0.60;;;7.70;52.70;;;5.96;59.69;99343.78;8276796;28;20129;-93
2021/12/02 12:48:18;;;;;;;0.95;0.70;;;7.70;52.50;;;6.03;59.84;99362.44;8293733;28;20207;-92
2021/12/02 12:52:40;;;;;;;0.50;0.47;;;7.70;52.60;;;6.02;59.78;99378.88;8278355;28;20137;-95
2021/12/02 12:57:07;;;;;;;1.30;0.60;;;7.70;52.50;;;6.02;59.79;99384.06;8289027;28;20136;-93
2021/12/02 13:01:30;;;;;;;0.73;0.65;;;7.70;52.20;;;6.06;59.63;99385.56;8278010;28;20132;-92
2021/12/02 13:06:24;;;;;;;0.98;0.60;;;7.70;52.40;;;6.09;59.88;99407.88;8290614;28;20140;-93
2021/12/02 13:11:00;;;;;;;0.50;0.50;;;7.70;52.00;;;6.10;59.51;99420.75;8256093;28;20137;-93
2021/12/02 13:15:27;;;;;;;1.27;0.60;;;7.80;52.40;;;6.10;60.14;99418.16;8279572;28;20140;-92
2021/12/02 13:19:59;;;;;;;1.02;0.52;;;7.70;52.40;;;6.11;59.69;99419.81;8287375;28;20133;-93
2021/12/02 13:24:34;;;;;;;1.15;0.82;;;7.80;52.60;;;6.03;59.85;99397.88;8304648;28;20467;-94
2021/12/02 13:29:01;;;;;;;2.28;0.60;;;7.80;52.40;;;6.15;59.63;99430.84;8292639;28;20121;-93
2021/12/02 13:34:06;;;;;;;1.52;0.80;;;7.80;52.20;;;6.15;59.44;99443.78;8307074;28;20471;-92
2021/12/02 13:38:28;;;;;;;0.63;0.63;;;7.80;52.30;;;6.11;59.46;99432.78;8288362;28;20144;-92
2021/12/02 13:42:59;;;;;;;0.80;0.80;;;7.80;52.40;;;6.05;59.28;99430.56;8309411;28;20132;-91
2021/12/02 13:47:29;;;;;;;2.53;0.98;;;7.80;52.20;;;6.04;59.41;99444.41;8290416;28;20128;-90
2021/12/02 13:56:50;;;;;;;0.95;0.90;;;7.70;52.30;;;6.00;59.58;99466.25;8298471;28;20209;-94
2021/12/02 14:01:12;;;;;;;0.77;0.65;;;7.70;52.30;;;5.97;59.41;99475.03;8291507;28;20128;-92
2021/12/02 14:05:38;;;;;;;0.77;0.60;;;7.50;51.90;;;5.98;59.60;99491.41;8300727;28;20137;-94
2021/12/02 14:10:00;;;;;;;0.73;0.50;;;7.60;52.00;;;5.95;59.28;99481.22;8267212;28;20144;-94
2021/12/02 14:14:22;;;;;;;0.50;0.50;;;7.50;52.10;;;5.90;59.55;99481.44;8295846;28;20113;-91
2021/12/02 14:18:44;;;;;;;0.70;0.70;;;7.60;52.00;;;5.92;59.34;99486.53;8292222;28;20060;-92
2021/12/02 14:23:18;;;;;;;2.28;0.60;;;7.60;52.20;;;5.96;59.17;99501.00;8291263;28;20129;-91
2021/12/02 14:27:40;;;;;;;1.50;0.98;;;7.60;52.20;;;5.87;59.05;99491.97;8287711;23;20475;-82
2021/12/02 14:32:12;;;;;;;0.60;0.60;;;7.50;52.20;;;5.90;58.70;99501.34;8292804;28;20042;-81
2021/12/02 14:36:47;;;;;;;1.90;0.60;;;7.60;52.00;;;5.81;59.18;99502.69;8294188;28;20141;-83
2021/12/02 14:41:19;;;;;;;1.43;0.60;;;7.50;52.00;;;5.90;59.44;99524.66;8299447;28;20049;-81
2021/12/02 14:45:41;;;;;;;1.00;0.70;;;7.50;52.10;;;5.85;59.46;99537.03;8277749;28;20312;-81
2021/12/02 14:50:08;;;;;;;3.33;0.90;;;7.50;52.40;;;5.83;58.70;99549.22;8299158;28;20136;-79
2021/12/02 14:54:35;;;;;;;1.35;0.70;;;7.40;51.80;;;5.84;59.50;99551.72;8298500;28;20148;-82
2021/12/02 14:59:24;;;;;;;0.70;0.70;;;7.30;52.00;;;5.75;59.18;99558.25;8298230;28;20438;-81
2021/12/02 15:03:45;;;;;;;0.50;0.50;;;7.40;51.80;;;5.81;59.05;99571.81;8293637;28;20406;-81
2021/12/02 15:08:07;;;;;;;1.92;0.70;;;7.40;51.90;;;5.74;59.00;99566.94;8286350;28;20140;-82
2021/12/02 15:12:33;;;;;;;0.52;0.52;;;7.30;51.80;;;5.75;59.23;99578.97;8266838;28;20041;-80
2021/12/02 15:16:55;;;;;;;;;;;7.40;51.70;;;5.69;58.76;99581.88;8263580;28;20038;-80
2021/12/02 15:21:16;;;;;;;1.77;0.80;;;7.40;52.10;;;5.68;59.28;99593.16;8249521;28;19931;-82
2021/12/02 15:25:44;;;;;;;0.73;0.60;;;7.40;51.90;;;5.63;58.79;99596.91;8270074;28;20456;-83
2021/12/02 15:30:06;;;;;;;0.70;0.65;;;7.20;51.80;;;5.62;59.43;99616.81;8255804;28;20132;-80
2021/12/02 15:34:28;;;;;;;0.95;0.68;;;7.30;52.10;;;5.63;58.72;99618.47;8284493;28;20054;-79
2021/12/02 15:38:54;;;;;;;1.17;0.80;;;7.30;52.20;;;5.66;58.44;99626.06;8281930;28;20408;-80
2021/12/02 15:43:25;;;;;;;2.15;0.80;;;7.30;52.10;;;5.63;58.48;99636.59;8276455;28;20052;-80
2021/12/02 15:47:47;;;;;;;4.30;0.93;;;7.30;52.10;;;5.48;58.67;99627.03;8272766;28;20042;-80
2021/12/02 15:52:09;;;;;;;3.30;1.00;;;7.20;52.20;;;5.58;59.03;99650.69;8271975;28;20053;-80
2021/12/02 15:56:32;;;;;;;3.00;0.80;;;7.20;52.10;;;5.60;58.55;99675.59;8276555;28;20054;-79
2021/12/02 16:00:58;;;;;;;2.10;0.77;;;7.20;52.10;;;5.51;59.20;99679.50;8280602;28;20052;-78
2021/12/02 16:05:39;;;;;;;0.70;0.70;;;7.20;52.10;;;5.50;58.40;99685.59;8291032;28;20057;-78
2021/12/02 16:14:41;;;;;;;2.30;1.05;;;7.10;52.00;;;5.49;58.83;99696.03;8275121;28;20161;-81
2021/12/02 16:19:02;;;;;;;0.93;0.85;;;7.10;52.20;;;5.43;58.55;99699.78;8258607;28;20050;-81
2021/12/02 16:23:26;;;;;;;1.98;1.02;;;7.10;52.10;;;5.42;58.75;99712.78;8277855;28;20081;-80
2021/12/02 16:27:49;;;;;;;1.45;1.10;;;7.10;52.20;;;5.37;58.64;99712.19;8271741;28;20051;-81
2021/12/02 16:32:11;;;;;;;1.85;1.13;;;7.20;52.20;;;5.29;58.92;99712.56;8282142;28;20277;-80
2021/12/02 16:36:36;;;;;;;1.75;0.95;;;7.00;52.20;;;5.28;58.85;99729.00;8280705;28;20041;-79
2021/12/02 16:40:59;;;;;;;1.00;0.80;;;6.90;52.10;;;5.32;58.30;99744.31;8271102;28;20060;-80
2021/12/02 16:45:25;;;;;;;2.17;1.10;;;6.90;52.10;;;5.27;58.61;99742.88;8273881;28;20462;-79
2021/12/02 16:49:47;;;;;;;2.70;1.48;;;6.90;52.10;;;5.19;58.76;99748.41;8269373;28;20528;-82
2021/12/02 16:54:09;;;;;;;2.45;0.82;;;6.90;52.20;;;5.15;58.28;99757.22;8256378;28;20057;-78
2021/12/02 16:58:31;;;;;;;3.67;1.42;;;6.80;52.10;;;5.01;58.61;99741.53;8272207;28;20054;-81
2021/12/02 17:02:55;;;;;;;2.13;1.02;;;6.80;52.20;;;4.95;58.69;99752.19;8257353;28;20038;-80
2021/12/02 17:07:18;;;;;;;1.05;0.95;;;6.70;52.10;;;5.01;58.78;99783.78;8262654;28;20095;-81
2021/12/02 17:11:40;;;;;;;1.73;1.15;;;6.70;52.20;;;4.89;58.40;99763.66;8259609;28;20076;-81
2021/12/02 17:16:02;;;;;;;1.42;0.82;;;6.60;52.20;;;4.95;58.80;99791.81;8267348;28;20056;-85
2021/12/02 17:20:26;;;;;;;0.98;0.98;;;6.50;52.20;;;4.84;58.70;99776.81;8272776;28;20041;-80
2021/12/02 17:24:48;;;;;;;1.63;1.35;;;6.50;52.20;;;4.83;58.66;99795.84;8258151;28;20052;-81
2021/12/02 17:29:11;;;;;;;2.08;1.55;;;6.50;52.40;;;4.74;58.60;99791.06;8298276;28;20441;-81
2021/12/02 17:33:32;;;;;;;1.17;1.08;;;6.40;52.30;;;4.79;58.65;99814.16;8306582;28;20180;-79
2021/12/02 17:37:58;;;;;;;1.73;0.98;;;6.40;52.40;;;4.49;58.39;99782.78;8291015;28;20590;-82
2021/12/02 17:42:20;;;;;;;;;;;6.40;52.50;;;4.60;58.61;99822.75;8252893;28;20038;-79
2021/12/02 17:46:42;;;;;;;1.17;0.95;;;6.30;52.70;;;4.60;58.32;99835.66;8269979;28;19921;-80
2021/12/02 17:51:04;;;;;;;3.17;1.17;;;6.30;52.60;;;4.49;58.65;99831.91;8270047;28;20044;-77
2021/12/02 17:55:26;;;;;;;1.95;1.30;;;6.20;52.60;;;4.19;58.55;99799.56;8277126;28;20132;-80
2021/12/02 17:59:48;;;;;;;1.42;1.30;;;6.10;52.50;;;4.49;58.57;99853.41;8280446;28;20045;-79
2021/12/02 18:04:10;;;;;;;1.50;1.15;;;6.10;52.60;;;4.50;58.81;99867.16;8270610;28;20570;-80
2021/12/02 18:08:32;;;;;;;2.15;1.30;;;6.10;52.70;;;4.44;58.51;99861.34;8259942;28;20046;-79
2021/12/02 18:12:57;;;;;;;1.02;0.93;;;6.10;52.80;;;4.43;58.69;99872.63;8262219;28;20043;-81
2021/12/02 18:17:19;;;;;;;1.42;1.20;;;5.90;52.70;;;4.35;58.72;99866.94;8248362;28;20030;-80
2021/12/02 18:21:41;;;;;;;3.03;1.38;;;6.00;52.80;;;4.33;58.47;99878.25;8262832;28;20051;-80
2021/12/02 18:26:04;;;;;;;1.60;1.13;;;6.00;52.80;;;4.29;58.80;99874.94;8267464;28;20557;-79
2021/12/02 18:30:29;;;;;;;1.67;1.15;;;5.90;52.80;;;4.31;58.91;99886.06;8266979;28;20522;-78
2021/12/02 18:34:52;;;;;;;1.48;1.30;;;6.00;52.90;;;4.27;58.72;99887.09;8255276;28;20392;-79
2021/12/02 18:39:15;;;;;;;2.63;1.25;;;5.90;52.90;;;4.18;58.81;99887.47;8268184;28;20050;-79
2021/12/02 18:43:36;;;;;;;2.92;2.00;;;5.90;52.90;;;4.23;58.76;99908.78;8258552;28;20132;-79
2021/12/02 18:47:59;;;;;;;13.13;2.20;;;5.90;53.00;;;4.20;58.88;99917.53;8259913;28;20044;-81
2021/12/02 18:52:21;;;;;;;1.40;1.30;;;5.80;52.90;;;4.13;58.75;99917.84;8247486;28;20044;-79
2021/12/02 18:56:42;;;;;;;1.50;1.20;;;5.80;52.90;;;4.18;59.06;99944.31;8269503;28;20523;-79
2021/12/02 19:01:05;;;;;;;2.47;1.40;;;5.80;53.00;;;4.07;58.58;99928.44;8265455;28;20495;-79
2021/12/02 19:05:30;;;;;;;1.17;1.08;;;5.80;53.10;;;4.11;58.93;99956.66;8273877;28;20132;-80
2021/12/02 19:22:40;;;;;;;1.20;1.10;;;5.60;53.10;;;3.96;58.78;99952.94;8266433;28;20046;-80
2021/12/02 19:28:43;;;;;;;1.52;0.98;;;5.70;53.30;;;3.96;58.97;99994.28;8285967;28;20509;-79
2021/12/02 19:33:04;;;;;;;1.35;0.90;;;5.60;53.30;;;3.93;58.92;99999.56;8297159;28;20052;-80
2021/12/02 19:37:26;;;;;;;4.68;1.30;;;5.60;53.40;;;3.88;58.92;99991.16;8271897;28;20041;-80